This is the latest recevied weather packets stored in our database for station/object K5NWZ. If no packets are shown the sender has not sent any weather packets the latest 10 day(s).
| Time | Temp. | Humidity | Pressure | Rain* | Wind** | Luminosity | Snow |
|---|---|---|---|---|---|---|---|
| 1778096938 | 4.44° C | 62% | 1029.3 hPa | 1.78 mm | - | 431 W/m² | - |
| 1778096635 | 4.44° C | 66% | 1029.1 hPa | 3.05 mm | - | 452 W/m² | - |
| 1778096332 | 4.44° C | 62% | 1029.3 hPa | 3.05 mm | - | 370 W/m² | - |
| 1778096029 | 3.89° C | 68% | 1029.1 hPa | 4.83 mm | - | 475 W/m² | - |
| 1778095725 | 3.89° C | 67% | 1029.4 hPa | 4.32 mm | - | 405 W/m² | - |
| 1778095422 | 3.89° C | 68% | 1029.3 hPa | 3.05 mm | - | 372 W/m² | - |
| 1778095119 | 3.33° C | 65% | 1029.4 hPa | 1.78 mm | - | 359 W/m² | - |
| 1778094816 | 3.33° C | 66% | 1029.4 hPa | 1.27 mm | - | 504 W/m² | - |
| 1778094513 | 3.33° C | 67% | 1029.5 hPa | 1.78 mm | - | 342 W/m² | - |
| 1778094209 | 3.33° C | 67% | 1029.7 hPa | 3.05 mm | - | 349 W/m² | - |
| 1778093906 | 3.33° C | 71% | 1029.5 hPa | 3.05 mm | - | 328 W/m² | - |
| 1778093603 | 3.33° C | 69% | 1029.7 hPa | 3.56 mm | - | 327 W/m² | - |
| 1778093300 | 3.33° C | 68% | 1029.8 hPa | 3.05 mm | - | 316 W/m² | - |
| 1778092997 | 3.89° C | 68% | 1029.8 hPa | 3.05 mm | - | 301 W/m² | - |
| 1778092695 | 3.33° C | 66% | 1029.6 hPa | 3.05 mm | - | 285 W/m² | - |
| 1778092389 | 3.33° C | 68% | 1029.7 hPa | 3.05 mm | - | 273 W/m² | - |
| 1778092087 | 3.89° C | 68% | 1029.8 hPa | 3.05 mm | - | 293 W/m² | - |
| 1778091784 | 3.89° C | 68% | 1029.8 hPa | 4.32 mm | - | 329 W/m² | - |
| 1778091481 | 3.33° C | 70% | 1029.9 hPa | 4.83 mm | - | 382 W/m² | - |
| 1778091179 | 4.44° C | 69% | 1030.3 hPa | 4.83 mm | - | 440 W/m² | - |
| 1778090876 | 3.89° C | 61% | 1029.8 hPa | 3.05 mm | - | 500 W/m² | - |
| 1778090571 | 4.44° C | 67% | 1029.9 hPa | 3.05 mm | - | 851 W/m² | - |
| 1778090268 | 4.44° C | 61% | 1029.8 hPa | 3.56 mm | - | 668 W/m² | - |
| 1778089965 | 3.89° C | 60% | 1029.7 hPa | 3.05 mm | - | 1013 W/m² | - |
| 1778089662 | 3.89° C | 69% | 1029.8 hPa | 3.05 mm | - | 900 W/m² | - |
* Rain latest hour (hover to see other rain measurements)
** Current wind speed in m/s (hover to see current wind gust speed)